sensor_id;sensor_type;location;lat;lon;timestamp;P1;durP1;ratioP1;P2;durP2;ratioP2
4500;SDS011;2263;54.654;9.410;2023-02-08T00:00:55;32.53;;;18.33;;
4500;SDS011;2263;54.654;9.410;2023-02-08T00:03:22;34.57;;;18.93;;
4500;SDS011;2263;54.654;9.410;2023-02-08T00:05:50;31.23;;;18.00;;
4500;SDS011;2263;54.654;9.410;2023-02-08T00:08:17;27.30;;;17.00;;
4500;SDS011;2263;54.654;9.410;2023-02-08T00:10:44;30.63;;;17.40;;
4500;SDS011;2263;54.654;9.410;2023-02-08T00:13:11;31.37;;;17.23;;
4500;SDS011;2263;54.654;9.410;2023-02-08T00:15:41;28.00;;;17.90;;
4500;SDS011;2263;54.654;9.410;2023-02-08T00:18:10;29.83;;;17.80;;
4500;SDS011;2263;54.654;9.410;2023-02-08T00:20:38;30.47;;;18.20;;
4500;SDS011;2263;54.654;9.410;2023-02-08T00:23:07;32.00;;;18.53;;
4500;SDS011;2263;54.654;9.410;2023-02-08T00:25:35;30.80;;;18.77;;
4500;SDS011;2263;54.654;9.410;2023-02-08T00:28:02;29.27;;;17.43;;
4500;SDS011;2263;54.654;9.410;2023-02-08T00:30:30;23.90;;;16.90;;
4500;SDS011;2263;54.654;9.410;2023-02-08T00:32:58;28.57;;;18.40;;
4500;SDS011;2263;54.654;9.410;2023-02-08T00:35:27;31.63;;;19.40;;
4500;SDS011;2263;54.654;9.410;2023-02-08T00:37:54;35.63;;;18.10;;
4500;SDS011;2263;54.654;9.410;2023-02-08T00:40:22;28.90;;;18.33;;
4500;SDS011;2263;54.654;9.410;2023-02-08T00:42:49;25.80;;;16.07;;
4500;SDS011;2263;54.654;9.410;2023-02-08T00:45:17;27.50;;;17.00;;
4500;SDS011;2263;54.654;9.410;2023-02-08T00:47:44;27.27;;;17.13;;
4500;SDS011;2263;54.654;9.410;2023-02-08T00:50:11;27.13;;;18.13;;
4500;SDS011;2263;54.654;9.410;2023-02-08T00:52:38;28.80;;;18.07;;
4500;SDS011;2263;54.654;9.410;2023-02-08T00:55:05;32.10;;;20.63;;
4500;SDS011;2263;54.654;9.410;2023-02-08T00:57:33;29.80;;;18.00;;
4500;SDS011;2263;54.654;9.410;2023-02-08T01:00:01;31.00;;;18.47;;
4500;SDS011;2263;54.654;9.410;2023-02-08T01:02:30;28.63;;;16.73;;
4500;SDS011;2263;54.654;9.410;2023-02-08T01:04:57;29.67;;;18.97;;
4500;SDS011;2263;54.654;9.410;2023-02-08T01:07:24;25.97;;;16.27;;
4500;SDS011;2263;54.654;9.410;2023-02-08T01:09:51;31.00;;;17.53;;
4500;SDS011;2263;54.654;9.410;2023-02-08T01:12:18;29.40;;;18.27;;
4500;SDS011;2263;54.654;9.410;2023-02-08T01:14:45;27.77;;;18.37;;
4500;SDS011;2263;54.654;9.410;2023-02-08T01:17:15;30.87;;;18.17;;
4500;SDS011;2263;54.654;9.410;2023-02-08T01:19:42;27.97;;;17.27;;
4500;SDS011;2263;54.654;9.410;2023-02-08T01:22:09;26.83;;;17.57;;
4500;SDS011;2263;54.654;9.410;2023-02-08T01:24:37;33.80;;;17.80;;
4500;SDS011;2263;54.654;9.410;2023-02-08T01:27:04;31.00;;;18.37;;
4500;SDS011;2263;54.654;9.410;2023-02-08T01:29:31;29.80;;;17.47;;
4500;SDS011;2263;54.654;9.410;2023-02-08T01:31:58;29.47;;;18.27;;
4500;SDS011;2263;54.654;9.410;2023-02-08T01:34:25;32.07;;;18.70;;
4500;SDS011;2263;54.654;9.410;2023-02-08T01:36:52;30.27;;;18.40;;
4500;SDS011;2263;54.654;9.410;2023-02-08T01:39:19;29.70;;;18.10;;
4500;SDS011;2263;54.654;9.410;2023-02-08T01:41:46;26.10;;;18.00;;
4500;SDS011;2263;54.654;9.410;2023-02-08T01:46:44;27.60;;;16.23;;
4500;SDS011;2263;54.654;9.410;2023-02-08T01:49:15;30.47;;;17.27;;
4500;SDS011;2263;54.654;9.410;2023-02-08T01:51:46;29.50;;;17.80;;
4500;SDS011;2263;54.654;9.410;2023-02-08T01:54:18;28.23;;;17.80;;
4500;SDS011;2263;54.654;9.410;2023-02-08T01:56:49;28.57;;;17.77;;
4500;SDS011;2263;54.654;9.410;2023-02-08T01:59:18;33.07;;;20.30;;
4500;SDS011;2263;54.654;9.410;2023-02-08T02:01:52;30.73;;;17.60;;
4500;SDS011;2263;54.654;9.410;2023-02-08T02:04:21;32.50;;;17.77;;
4500;SDS011;2263;54.654;9.410;2023-02-08T02:06:50;34.30;;;17.73;;
4500;SDS011;2263;54.654;9.410;2023-02-08T02:09:26;32.00;;;18.27;;
4500;SDS011;2263;54.654;9.410;2023-02-08T02:12:17;30.10;;;18.37;;
4500;SDS011;2263;54.654;9.410;2023-02-08T02:14:45;29.97;;;18.43;;
4500;SDS011;2263;54.654;9.410;2023-02-08T02:17:14;32.57;;;18.47;;
4500;SDS011;2263;54.654;9.410;2023-02-08T02:22:23;32.40;;;18.20;;
4500;SDS011;2263;54.654;9.410;2023-02-08T02:28:12;36.27;;;18.77;;
4500;SDS011;2263;54.654;9.410;2023-02-08T02:39:01;33.87;;;18.53;;
4500;SDS011;2263;54.654;9.410;2023-02-08T02:44:25;25.50;;;15.80;;
4500;SDS011;2263;54.654;9.410;2023-02-08T02:47:22;26.80;;;16.87;;
4500;SDS011;2263;54.654;9.410;2023-02-08T02:49:54;30.40;;;18.43;;
4500;SDS011;2263;54.654;9.410;2023-02-08T02:55:35;33.97;;;19.27;;
4500;SDS011;2263;54.654;9.410;2023-02-08T02:58:09;29.80;;;16.80;;
4500;SDS011;2263;54.654;9.410;2023-02-08T03:00:39;37.67;;;16.93;;
4500;SDS011;2263;54.654;9.410;2023-02-08T03:03:12;32.67;;;17.37;;
4500;SDS011;2263;54.654;9.410;2023-02-08T03:05:46;31.23;;;17.13;;
4500;SDS011;2263;54.654;9.410;2023-02-08T03:08:19;31.30;;;17.17;;
4500;SDS011;2263;54.654;9.410;2023-02-08T03:11:15;29.20;;;17.23;;
4500;SDS011;2263;54.654;9.410;2023-02-08T03:20:06;32.57;;;19.80;;
4500;SDS011;2263;54.654;9.410;2023-02-08T03:30:52;30.00;;;18.33;;
4500;SDS011;2263;54.654;9.410;2023-02-08T03:33:42;32.93;;;17.03;;
4500;SDS011;2263;54.654;9.410;2023-02-08T03:36:54;31.80;;;18.00;;
4500;SDS011;2263;54.654;9.410;2023-02-08T03:39:26;28.23;;;16.50;;
4500;SDS011;2263;54.654;9.410;2023-02-08T03:41:58;29.73;;;17.10;;
4500;SDS011;2263;54.654;9.410;2023-02-08T03:44:33;30.60;;;17.40;;
4500;SDS011;2263;54.654;9.410;2023-02-08T03:47:10;32.60;;;18.13;;
4500;SDS011;2263;54.654;9.410;2023-02-08T03:49:45;32.67;;;18.60;;
4500;SDS011;2263;54.654;9.410;2023-02-08T03:52:20;31.20;;;19.10;;
4500;SDS011;2263;54.654;9.410;2023-02-08T03:54:53;31.50;;;17.27;;
4500;SDS011;2263;54.654;9.410;2023-02-08T03:57:25;34.73;;;18.60;;
4500;SDS011;2263;54.654;9.410;2023-02-08T04:00:06;36.17;;;17.50;;
4500;SDS011;2263;54.654;9.410;2023-02-08T04:02:36;30.33;;;16.40;;
4500;SDS011;2263;54.654;9.410;2023-02-08T04:05:09;34.13;;;19.17;;
4500;SDS011;2263;54.654;9.410;2023-02-08T04:07:36;35.00;;;19.53;;
4500;SDS011;2263;54.654;9.410;2023-02-08T04:10:03;33.10;;;19.63;;
4500;SDS011;2263;54.654;9.410;2023-02-08T04:12:31;33.93;;;20.17;;
4500;SDS011;2263;54.654;9.410;2023-02-08T04:14:58;31.30;;;18.13;;
4500;SDS011;2263;54.654;9.410;2023-02-08T04:17:25;35.73;;;19.53;;
4500;SDS011;2263;54.654;9.410;2023-02-08T04:19:52;31.27;;;18.33;;
4500;SDS011;2263;54.654;9.410;2023-02-08T04:22:19;36.80;;;18.70;;
4500;SDS011;2263;54.654;9.410;2023-02-08T04:24:46;39.73;;;20.50;;
4500;SDS011;2263;54.654;9.410;2023-02-08T04:27:13;36.83;;;19.00;;
4500;SDS011;2263;54.654;9.410;2023-02-08T04:29:40;33.60;;;19.57;;
4500;SDS011;2263;54.654;9.410;2023-02-08T04:32:07;34.13;;;19.10;;
4500;SDS011;2263;54.654;9.410;2023-02-08T04:34:38;32.43;;;18.87;;
4500;SDS011;2263;54.654;9.410;2023-02-08T04:37:06;31.67;;;17.73;;
4500;SDS011;2263;54.654;9.410;2023-02-08T04:39:34;32.53;;;18.50;;
4500;SDS011;2263;54.654;9.410;2023-02-08T04:42:01;38.00;;;20.60;;
4500;SDS011;2263;54.654;9.410;2023-02-08T04:44:28;39.90;;;21.80;;
4500;SDS011;2263;54.654;9.410;2023-02-08T04:46:58;39.13;;;21.80;;
4500;SDS011;2263;54.654;9.410;2023-02-08T04:49:25;35.37;;;19.57;;
4500;SDS011;2263;54.654;9.410;2023-02-08T04:51:52;36.40;;;19.80;;
4500;SDS011;2263;54.654;9.410;2023-02-08T04:54:20;40.33;;;20.93;;
4500;SDS011;2263;54.654;9.410;2023-02-08T04:56:47;46.63;;;28.70;;
4500;SDS011;2263;54.654;9.410;2023-02-08T04:59:14;95.80;;;58.50;;
4500;SDS011;2263;54.654;9.410;2023-02-08T05:01:41;106.77;;;68.60;;
4500;SDS011;2263;54.654;9.410;2023-02-08T05:04:14;99.30;;;66.50;;
4500;SDS011;2263;54.654;9.410;2023-02-08T05:06:42;88.17;;;56.93;;
4500;SDS011;2263;54.654;9.410;2023-02-08T05:09:09;90.57;;;56.30;;
4500;SDS011;2263;54.654;9.410;2023-02-08T05:11:36;88.00;;;57.40;;
4500;SDS011;2263;54.654;9.410;2023-02-08T05:14:03;86.07;;;52.97;;
4500;SDS011;2263;54.654;9.410;2023-02-08T05:16:30;77.83;;;50.83;;
4500;SDS011;2263;54.654;9.410;2023-02-08T05:18:57;76.90;;;47.00;;
4500;SDS011;2263;54.654;9.410;2023-02-08T05:21:24;77.97;;;46.87;;
4500;SDS011;2263;54.654;9.410;2023-02-08T05:23:51;64.37;;;42.57;;
4500;SDS011;2263;54.654;9.410;2023-02-08T05:26:19;73.03;;;42.70;;
4500;SDS011;2263;54.654;9.410;2023-02-08T05:28:46;70.80;;;43.57;;
4500;SDS011;2263;54.654;9.410;2023-02-08T05:31:19;67.13;;;39.23;;
4500;SDS011;2263;54.654;9.410;2023-02-08T05:33:47;62.17;;;35.57;;
4500;SDS011;2263;54.654;9.410;2023-02-08T05:36:15;67.17;;;35.90;;
4500;SDS011;2263;54.654;9.410;2023-02-08T05:38:43;57.03;;;30.80;;
4500;SDS011;2263;54.654;9.410;2023-02-08T05:41:10;57.20;;;33.33;;
4500;SDS011;2263;54.654;9.410;2023-02-08T05:43:37;61.10;;;32.57;;
4500;SDS011;2263;54.654;9.410;2023-02-08T05:46:04;52.93;;;29.60;;
4500;SDS011;2263;54.654;9.410;2023-02-08T05:48:31;50.47;;;28.07;;
4500;SDS011;2263;54.654;9.410;2023-02-08T05:50:58;61.03;;;30.10;;
4500;SDS011;2263;54.654;9.410;2023-02-08T05:53:26;54.40;;;29.23;;
4500;SDS011;2263;54.654;9.410;2023-02-08T05:55:53;45.43;;;26.23;;
4500;SDS011;2263;54.654;9.410;2023-02-08T05:58:21;50.10;;;26.80;;
4500;SDS011;2263;54.654;9.410;2023-02-08T06:00:49;47.20;;;25.70;;
4500;SDS011;2263;54.654;9.410;2023-02-08T06:03:17;46.90;;;25.00;;
4500;SDS011;2263;54.654;9.410;2023-02-08T06:05:44;42.87;;;25.27;;
4500;SDS011;2263;54.654;9.410;2023-02-08T06:08:11;43.97;;;24.50;;
4500;SDS011;2263;54.654;9.410;2023-02-08T06:10:38;49.37;;;24.77;;
4500;SDS011;2263;54.654;9.410;2023-02-08T06:13:08;43.77;;;22.77;;
4500;SDS011;2263;54.654;9.410;2023-02-08T06:15:35;44.77;;;23.17;;
4500;SDS011;2263;54.654;9.410;2023-02-08T06:18:02;43.33;;;24.07;;
4500;SDS011;2263;54.654;9.410;2023-02-08T06:20:29;38.53;;;23.80;;
4500;SDS011;2263;54.654;9.410;2023-02-08T06:22:56;49.20;;;22.93;;
4500;SDS011;2263;54.654;9.410;2023-02-08T06:25:24;49.70;;;26.67;;
4500;SDS011;2263;54.654;9.410;2023-02-08T06:27:51;40.27;;;21.50;;
4500;SDS011;2263;54.654;9.410;2023-02-08T06:30:18;40.30;;;21.70;;
4500;SDS011;2263;54.654;9.410;2023-02-08T06:32:45;42.90;;;22.70;;
4500;SDS011;2263;54.654;9.410;2023-02-08T06:35:12;45.13;;;22.73;;
4500;SDS011;2263;54.654;9.410;2023-02-08T06:37:39;39.83;;;22.63;;
4500;SDS011;2263;54.654;9.410;2023-02-08T06:40:07;38.97;;;22.20;;
4500;SDS011;2263;54.654;9.410;2023-02-08T06:42:34;45.43;;;22.67;;
4500;SDS011;2263;54.654;9.410;2023-02-08T06:45:02;43.53;;;21.77;;
4500;SDS011;2263;54.654;9.410;2023-02-08T06:47:29;39.23;;;21.67;;
4500;SDS011;2263;54.654;9.410;2023-02-08T06:49:56;39.47;;;20.97;;
4500;SDS011;2263;54.654;9.410;2023-02-08T06:52:23;44.37;;;21.37;;
4500;SDS011;2263;54.654;9.410;2023-02-08T06:54:50;37.47;;;21.77;;
4500;SDS011;2263;54.654;9.410;2023-02-08T06:57:18;39.17;;;20.40;;
4500;SDS011;2263;54.654;9.410;2023-02-08T06:59:45;40.93;;;21.83;;
4500;SDS011;2263;54.654;9.410;2023-02-08T07:02:13;42.83;;;23.17;;
4500;SDS011;2263;54.654;9.410;2023-02-08T07:04:42;45.40;;;22.90;;
4500;SDS011;2263;54.654;9.410;2023-02-08T07:07:11;43.57;;;22.63;;
4500;SDS011;2263;54.654;9.410;2023-02-08T07:09:39;43.87;;;21.60;;
4500;SDS011;2263;54.654;9.410;2023-02-08T07:12:06;40.83;;;21.67;;
4500;SDS011;2263;54.654;9.410;2023-02-08T07:14:35;35.27;;;20.27;;
4500;SDS011;2263;54.654;9.410;2023-02-08T07:17:04;43.80;;;22.00;;
4500;SDS011;2263;54.654;9.410;2023-02-08T07:19:31;38.40;;;20.83;;
4500;SDS011;2263;54.654;9.410;2023-02-08T07:21:59;37.83;;;21.60;;
4500;SDS011;2263;54.654;9.410;2023-02-08T07:24:39;42.63;;;22.90;;
4500;SDS011;2263;54.654;9.410;2023-02-08T07:27:07;42.50;;;22.00;;
4500;SDS011;2263;54.654;9.410;2023-02-08T07:29:36;40.13;;;21.70;;
4500;SDS011;2263;54.654;9.410;2023-02-08T07:32:04;42.07;;;21.37;;
4500;SDS011;2263;54.654;9.410;2023-02-08T07:34:34;36.10;;;19.47;;
4500;SDS011;2263;54.654;9.410;2023-02-08T07:37:02;37.80;;;19.70;;
4500;SDS011;2263;54.654;9.410;2023-02-08T07:39:30;40.07;;;20.80;;
4500;SDS011;2263;54.654;9.410;2023-02-08T07:41:57;39.53;;;21.13;;
4500;SDS011;2263;54.654;9.410;2023-02-08T07:44:25;47.07;;;23.67;;
4500;SDS011;2263;54.654;9.410;2023-02-08T07:46:53;38.57;;;20.53;;
4500;SDS011;2263;54.654;9.410;2023-02-08T07:49:20;38.30;;;21.80;;
4500;SDS011;2263;54.654;9.410;2023-02-08T07:51:47;36.20;;;20.60;;
4500;SDS011;2263;54.654;9.410;2023-02-08T07:54:14;41.50;;;20.80;;
4500;SDS011;2263;54.654;9.410;2023-02-08T07:56:41;37.70;;;20.70;;
4500;SDS011;2263;54.654;9.410;2023-02-08T07:59:09;37.80;;;22.73;;
4500;SDS011;2263;54.654;9.410;2023-02-08T08:01:36;30.57;;;19.33;;
4500;SDS011;2263;54.654;9.410;2023-02-08T08:04:03;39.80;;;18.90;;
4500;SDS011;2263;54.654;9.410;2023-02-08T08:06:31;37.00;;;20.07;;
4500;SDS011;2263;54.654;9.410;2023-02-08T08:08:58;35.23;;;19.60;;
4500;SDS011;2263;54.654;9.410;2023-02-08T08:11:25;32.60;;;18.43;;
4500;SDS011;2263;54.654;9.410;2023-02-08T08:13:53;38.43;;;21.20;;
4500;SDS011;2263;54.654;9.410;2023-02-08T08:16:20;37.20;;;19.57;;
4500;SDS011;2263;54.654;9.410;2023-02-08T08:18:48;35.33;;;18.80;;
4500;SDS011;2263;54.654;9.410;2023-02-08T08:21:16;43.80;;;22.83;;
4500;SDS011;2263;54.654;9.410;2023-02-08T08:23:43;45.10;;;23.10;;
4500;SDS011;2263;54.654;9.410;2023-02-08T08:26:12;40.23;;;22.07;;
4500;SDS011;2263;54.654;9.410;2023-02-08T08:28:41;44.43;;;21.63;;
4500;SDS011;2263;54.654;9.410;2023-02-08T08:31:10;42.20;;;19.07;;
4500;SDS011;2263;54.654;9.410;2023-02-08T08:33:39;41.80;;;21.40;;
4500;SDS011;2263;54.654;9.410;2023-02-08T08:36:07;36.73;;;20.87;;
4500;SDS011;2263;54.654;9.410;2023-02-08T08:38:34;39.23;;;20.67;;
4500;SDS011;2263;54.654;9.410;2023-02-08T08:41:10;41.00;;;20.53;;
4500;SDS011;2263;54.654;9.410;2023-02-08T08:43:40;37.70;;;22.17;;
4500;SDS011;2263;54.654;9.410;2023-02-08T08:46:08;37.87;;;20.27;;
4500;SDS011;2263;54.654;9.410;2023-02-08T08:48:36;40.00;;;21.10;;
4500;SDS011;2263;54.654;9.410;2023-02-08T08:51:04;39.30;;;23.30;;
4500;SDS011;2263;54.654;9.410;2023-02-08T08:53:32;40.60;;;21.53;;
4500;SDS011;2263;54.654;9.410;2023-02-08T08:56:00;40.23;;;21.63;;
4500;SDS011;2263;54.654;9.410;2023-02-08T08:58:27;38.60;;;18.10;;
4500;SDS011;2263;54.654;9.410;2023-02-08T09:00:55;41.47;;;22.73;;
4500;SDS011;2263;54.654;9.410;2023-02-08T09:03:26;35.87;;;21.40;;
4500;SDS011;2263;54.654;9.410;2023-02-08T09:05:54;46.13;;;22.10;;
4500;SDS011;2263;54.654;9.410;2023-02-08T09:08:22;37.47;;;20.90;;
4500;SDS011;2263;54.654;9.410;2023-02-08T09:10:49;40.43;;;22.20;;
4500;SDS011;2263;54.654;9.410;2023-02-08T09:13:16;42.90;;;21.83;;
4500;SDS011;2263;54.654;9.410;2023-02-08T09:15:47;41.37;;;20.83;;
4500;SDS011;2263;54.654;9.410;2023-02-08T09:18:14;43.67;;;23.77;;
4500;SDS011;2263;54.654;9.410;2023-02-08T09:20:42;52.73;;;25.77;;
4500;SDS011;2263;54.654;9.410;2023-02-08T09:23:10;46.10;;;22.97;;
4500;SDS011;2263;54.654;9.410;2023-02-08T09:25:43;45.10;;;24.10;;
4500;SDS011;2263;54.654;9.410;2023-02-08T09:28:10;39.13;;;23.37;;
4500;SDS011;2263;54.654;9.410;2023-02-08T09:30:37;42.00;;;22.43;;
4500;SDS011;2263;54.654;9.410;2023-02-08T09:33:05;47.10;;;21.57;;
4500;SDS011;2263;54.654;9.410;2023-02-08T09:35:32;41.67;;;20.60;;
4500;SDS011;2263;54.654;9.410;2023-02-08T09:37:59;46.23;;;24.43;;
4500;SDS011;2263;54.654;9.410;2023-02-08T09:40:34;44.20;;;20.50;;
4500;SDS011;2263;54.654;9.410;2023-02-08T09:43:39;37.90;;;21.57;;
4500;SDS011;2263;54.654;9.410;2023-02-08T09:46:07;43.13;;;22.63;;
4500;SDS011;2263;54.654;9.410;2023-02-08T09:48:41;44.63;;;22.13;;
4500;SDS011;2263;54.654;9.410;2023-02-08T09:51:16;39.07;;;20.63;;
4500;SDS011;2263;54.654;9.410;2023-02-08T09:54:02;38.90;;;21.30;;
4500;SDS011;2263;54.654;9.410;2023-02-08T09:56:33;47.00;;;24.00;;
4500;SDS011;2263;54.654;9.410;2023-02-08T09:59:10;42.00;;;21.27;;
4500;SDS011;2263;54.654;9.410;2023-02-08T10:01:50;46.63;;;22.20;;
4500;SDS011;2263;54.654;9.410;2023-02-08T10:07:09;37.40;;;21.33;;
4500;SDS011;2263;54.654;9.410;2023-02-08T10:09:37;48.23;;;24.03;;
4500;SDS011;2263;54.654;9.410;2023-02-08T10:12:17;37.00;;;20.73;;
4500;SDS011;2263;54.654;9.410;2023-02-08T10:17:51;42.20;;;20.23;;
4500;SDS011;2263;54.654;9.410;2023-02-08T10:20:27;40.67;;;21.80;;
4500;SDS011;2263;54.654;9.410;2023-02-08T10:31:08;44.07;;;22.13;;
4500;SDS011;2263;54.654;9.410;2023-02-08T10:36:56;36.60;;;22.07;;
4500;SDS011;2263;54.654;9.410;2023-02-08T10:39:30;44.17;;;21.83;;
4500;SDS011;2263;54.654;9.410;2023-02-08T10:42:01;44.57;;;22.00;;
4500;SDS011;2263;54.654;9.410;2023-02-08T10:44:46;40.90;;;20.87;;
4500;SDS011;2263;54.654;9.410;2023-02-08T10:50:24;38.17;;;22.60;;
4500;SDS011;2263;54.654;9.410;2023-02-08T10:53:03;35.83;;;20.53;;
4500;SDS011;2263;54.654;9.410;2023-02-08T10:55:31;43.87;;;21.13;;
4500;SDS011;2263;54.654;9.410;2023-02-08T10:58:03;45.57;;;24.17;;
4500;SDS011;2263;54.654;9.410;2023-02-08T11:00:36;41.03;;;21.70;;
4500;SDS011;2263;54.654;9.410;2023-02-08T11:03:23;45.47;;;24.43;;
4500;SDS011;2263;54.654;9.410;2023-02-08T11:05:52;45.00;;;21.73;;
4500;SDS011;2263;54.654;9.410;2023-02-08T11:08:24;38.90;;;21.10;;
4500;SDS011;2263;54.654;9.410;2023-02-08T11:13:30;39.40;;;20.50;;
4500;SDS011;2263;54.654;9.410;2023-02-08T11:16:09;39.30;;;21.27;;
4500;SDS011;2263;54.654;9.410;2023-02-08T11:18:51;43.97;;;21.67;;
4500;SDS011;2263;54.654;9.410;2023-02-08T11:21:26;40.77;;;20.27;;
4500;SDS011;2263;54.654;9.410;2023-02-08T11:23:59;39.83;;;20.77;;
4500;SDS011;2263;54.654;9.410;2023-02-08T11:26:39;34.20;;;20.00;;
4500;SDS011;2263;54.654;9.410;2023-02-08T11:29:14;36.67;;;19.70;;
4500;SDS011;2263;54.654;9.410;2023-02-08T11:34:36;41.50;;;20.23;;
4500;SDS011;2263;54.654;9.410;2023-02-08T11:39:52;38.60;;;22.67;;
4500;SDS011;2263;54.654;9.410;2023-02-08T11:42:28;37.20;;;19.37;;
4500;SDS011;2263;54.654;9.410;2023-02-08T11:45:00;37.40;;;20.87;;
4500;SDS011;2263;54.654;9.410;2023-02-08T11:47:29;34.20;;;20.30;;
4500;SDS011;2263;54.654;9.410;2023-02-08T11:50:03;42.67;;;20.23;;
4500;SDS011;2263;54.654;9.410;2023-02-08T11:52:42;40.27;;;19.03;;
4500;SDS011;2263;54.654;9.410;2023-02-08T11:57:57;30.00;;;16.70;;
4500;SDS011;2263;54.654;9.410;2023-02-08T12:00:42;37.90;;;20.10;;
4500;SDS011;2263;54.654;9.410;2023-02-08T12:03:31;34.83;;;17.93;;
4500;SDS011;2263;54.654;9.410;2023-02-08T12:11:18;32.23;;;18.07;;
4500;SDS011;2263;54.654;9.410;2023-02-08T12:22:25;59.73;;;35.10;;
4500;SDS011;2263;54.654;9.410;2023-02-08T12:30:33;49.57;;;29.80;;
4500;SDS011;2263;54.654;9.410;2023-02-08T12:36:25;45.13;;;26.43;;
4500;SDS011;2263;54.654;9.410;2023-02-08T12:38:49;45.30;;;24.03;;
4500;SDS011;2263;54.654;9.410;2023-02-08T12:42:12;43.77;;;25.10;;
4500;SDS011;2263;54.654;9.410;2023-02-08T12:45:31;37.67;;;24.47;;
4500;SDS011;2263;54.654;9.410;2023-02-08T12:51:05;35.70;;;20.93;;
4500;SDS011;2263;54.654;9.410;2023-02-08T12:53:51;36.80;;;20.67;;
4500;SDS011;2263;54.654;9.410;2023-02-08T12:56:27;39.50;;;22.23;;
4500;SDS011;2263;54.654;9.410;2023-02-08T12:59:00;38.97;;;20.90;;
4500;SDS011;2263;54.654;9.410;2023-02-08T13:01:43;32.47;;;19.33;;
4500;SDS011;2263;54.654;9.410;2023-02-08T13:04:29;38.47;;;21.50;;
4500;SDS011;2263;54.654;9.410;2023-02-08T13:07:25;39.17;;;20.30;;
4500;SDS011;2263;54.654;9.410;2023-02-08T13:10:41;30.50;;;18.10;;
4500;SDS011;2263;54.654;9.410;2023-02-08T13:13:11;39.70;;;19.93;;
4500;SDS011;2263;54.654;9.410;2023-02-08T13:15:51;35.87;;;19.80;;
4500;SDS011;2263;54.654;9.410;2023-02-08T13:18:20;33.70;;;17.97;;
4500;SDS011;2263;54.654;9.410;2023-02-08T13:20:57;38.10;;;18.37;;
4500;SDS011;2263;54.654;9.410;2023-02-08T13:23:37;35.33;;;19.57;;
4500;SDS011;2263;54.654;9.410;2023-02-08T13:26:19;34.07;;;19.00;;
4500;SDS011;2263;54.654;9.410;2023-02-08T13:28:52;31.40;;;20.00;;
4500;SDS011;2263;54.654;9.410;2023-02-08T13:31:23;31.80;;;18.97;;
4500;SDS011;2263;54.654;9.410;2023-02-08T13:34:04;34.80;;;18.70;;
4500;SDS011;2263;54.654;9.410;2023-02-08T13:36:54;36.20;;;19.70;;
4500;SDS011;2263;54.654;9.410;2023-02-08T13:39:35;28.57;;;17.80;;
4500;SDS011;2263;54.654;9.410;2023-02-08T13:44:58;32.23;;;17.77;;
4500;SDS011;2263;54.654;9.410;2023-02-08T13:47:26;29.00;;;17.57;;
4500;SDS011;2263;54.654;9.410;2023-02-08T13:49:57;32.10;;;18.27;;
4500;SDS011;2263;54.654;9.410;2023-02-08T14:03:20;31.50;;;17.63;;
4500;SDS011;2263;54.654;9.410;2023-02-08T14:05:53;32.53;;;18.60;;
4500;SDS011;2263;54.654;9.410;2023-02-08T14:19:59;35.83;;;17.33;;
4500;SDS011;2263;54.654;9.410;2023-02-08T14:22:32;31.87;;;18.07;;
4500;SDS011;2263;54.654;9.410;2023-02-08T14:27:42;27.93;;;16.43;;
4500;SDS011;2263;54.654;9.410;2023-02-08T14:32:44;30.73;;;17.57;;
4500;SDS011;2263;54.654;9.410;2023-02-08T14:35:26;27.63;;;16.70;;
4500;SDS011;2263;54.654;9.410;2023-02-08T14:45:46;30.20;;;16.87;;
4500;SDS011;2263;54.654;9.410;2023-02-08T14:48:57;28.43;;;16.23;;
4500;SDS011;2263;54.654;9.410;2023-02-08T14:56:30;27.63;;;15.40;;
4500;SDS011;2263;54.654;9.410;2023-02-08T14:59:10;25.10;;;14.90;;
4500;SDS011;2263;54.654;9.410;2023-02-08T15:01:47;34.77;;;15.63;;
4500;SDS011;2263;54.654;9.410;2023-02-08T15:04:18;30.47;;;14.70;;
4500;SDS011;2263;54.654;9.410;2023-02-08T15:09:51;25.93;;;14.13;;
4500;SDS011;2263;54.654;9.410;2023-02-08T15:14:45;26.33;;;15.00;;
4500;SDS011;2263;54.654;9.410;2023-02-08T15:23:14;27.33;;;15.43;;
4500;SDS011;2263;54.654;9.410;2023-02-08T15:25:55;26.40;;;13.70;;
4500;SDS011;2263;54.654;9.410;2023-02-08T15:28:28;24.40;;;14.20;;
4500;SDS011;2263;54.654;9.410;2023-02-08T15:30:58;25.37;;;15.53;;
4500;SDS011;2263;54.654;9.410;2023-02-08T15:33:30;23.27;;;13.53;;
4500;SDS011;2263;54.654;9.410;2023-02-08T15:36:05;24.03;;;14.70;;
4500;SDS011;2263;54.654;9.410;2023-02-08T15:38:40;22.87;;;14.17;;
4500;SDS011;2263;54.654;9.410;2023-02-08T15:41:14;25.80;;;15.10;;
4500;SDS011;2263;54.654;9.410;2023-02-08T15:43:49;32.40;;;16.80;;
4500;SDS011;2263;54.654;9.410;2023-02-08T15:46:24;38.00;;;18.93;;
4500;SDS011;2263;54.654;9.410;2023-02-08T15:48:52;36.57;;;18.70;;
4500;SDS011;2263;54.654;9.410;2023-02-08T15:51:22;35.77;;;20.30;;
4500;SDS011;2263;54.654;9.410;2023-02-08T15:53:51;38.73;;;21.63;;
4500;SDS011;2263;54.654;9.410;2023-02-08T15:56:30;47.83;;;22.80;;
4500;SDS011;2263;54.654;9.410;2023-02-08T15:59:03;43.70;;;21.03;;
4500;SDS011;2263;54.654;9.410;2023-02-08T16:01:32;43.17;;;22.63;;
4500;SDS011;2263;54.654;9.410;2023-02-08T16:04:01;34.80;;;20.00;;
4500;SDS011;2263;54.654;9.410;2023-02-08T16:06:38;29.20;;;17.67;;
4500;SDS011;2263;54.654;9.410;2023-02-08T16:09:17;34.27;;;18.70;;
4500;SDS011;2263;54.654;9.410;2023-02-08T16:11:47;34.63;;;18.17;;
4500;SDS011;2263;54.654;9.410;2023-02-08T16:14:17;25.20;;;15.30;;
4500;SDS011;2263;54.654;9.410;2023-02-08T16:16:53;29.70;;;16.60;;
4500;SDS011;2263;54.654;9.410;2023-02-08T16:19:32;26.63;;;16.07;;
4500;SDS011;2263;54.654;9.410;2023-02-08T16:24:51;28.33;;;15.60;;
4500;SDS011;2263;54.654;9.410;2023-02-08T16:27:28;33.53;;;16.97;;
4500;SDS011;2263;54.654;9.410;2023-02-08T16:29:56;27.23;;;15.20;;
4500;SDS011;2263;54.654;9.410;2023-02-08T16:32:31;24.07;;;14.80;;
4500;SDS011;2263;54.654;9.410;2023-02-08T16:35:11;25.67;;;14.93;;
4500;SDS011;2263;54.654;9.410;2023-02-08T16:37:39;26.83;;;13.67;;
4500;SDS011;2263;54.654;9.410;2023-02-08T16:42:43;27.60;;;14.07;;
4500;SDS011;2263;54.654;9.410;2023-02-08T16:45:12;23.57;;;15.17;;
4500;SDS011;2263;54.654;9.410;2023-02-08T16:47:49;27.40;;;14.03;;
4500;SDS011;2263;54.654;9.410;2023-02-08T16:50:20;23.17;;;12.53;;
4500;SDS011;2263;54.654;9.410;2023-02-08T16:52:52;20.13;;;13.97;;
4500;SDS011;2263;54.654;9.410;2023-02-08T16:55:22;23.90;;;13.70;;
4500;SDS011;2263;54.654;9.410;2023-02-08T16:57:52;22.30;;;13.13;;
4500;SDS011;2263;54.654;9.410;2023-02-08T17:02:51;22.87;;;12.00;;
4500;SDS011;2263;54.654;9.410;2023-02-08T17:05:19;21.97;;;13.10;;
4500;SDS011;2263;54.654;9.410;2023-02-08T17:07:48;21.30;;;13.47;;
4500;SDS011;2263;54.654;9.410;2023-02-08T17:10:18;21.20;;;11.63;;
4500;SDS011;2263;54.654;9.410;2023-02-08T17:12:54;26.03;;;13.03;;
4500;SDS011;2263;54.654;9.410;2023-02-08T17:15:41;26.50;;;17.23;;
4500;SDS011;2263;54.654;9.410;2023-02-08T17:18:09;28.50;;;16.17;;
4500;SDS011;2263;54.654;9.410;2023-02-08T17:20:38;26.93;;;15.77;;
4500;SDS011;2263;54.654;9.410;2023-02-08T17:23:06;28.13;;;15.80;;
4500;SDS011;2263;54.654;9.410;2023-02-08T17:25:33;26.67;;;14.93;;
4500;SDS011;2263;54.654;9.410;2023-02-08T17:28:05;21.57;;;14.00;;
4500;SDS011;2263;54.654;9.410;2023-02-08T17:30:44;28.53;;;15.20;;
4500;SDS011;2263;54.654;9.410;2023-02-08T17:33:12;23.70;;;14.47;;
4500;SDS011;2263;54.654;9.410;2023-02-08T17:35:46;27.23;;;15.23;;
4500;SDS011;2263;54.654;9.410;2023-02-08T17:38:16;26.10;;;14.50;;
4500;SDS011;2263;54.654;9.410;2023-02-08T17:40:43;28.23;;;14.17;;
4500;SDS011;2263;54.654;9.410;2023-02-08T17:43:11;28.33;;;16.10;;
4500;SDS011;2263;54.654;9.410;2023-02-08T17:45:39;29.60;;;15.83;;
4500;SDS011;2263;54.654;9.410;2023-02-08T17:48:08;29.03;;;16.07;;
4500;SDS011;2263;54.654;9.410;2023-02-08T17:50:35;28.40;;;15.63;;